Terminal Aerodrome Forecast
Issued by NWS Shreveport, LA

Home | Current Version | Previous Version | Text Only | Print | Product List | Glossary On
Versions: 1 2 3 4 5 6 7 8 9 10 11 12 13 14 15 16 17 18
000
FTUS44 KSHV 011500 AAA
TAFELD
TAF AMD
KELD 011514Z 0115/0212 18010KT P6SM VCSH OVC004
      TEMPO 0115/0119 4SM SHRA BR OVC015
     FM011900 28012G20KT P6SM -RA OVC025
     FM020100 32013G22KT P6SM BKN100
     FM020400 33013G22KT P6SM SKC=

USA.gov is the U.S. government's official web portal to all federal, state and local government web resources and services.